Latest Coastal Weather Observations for Ballina

IDN60701

Issued at 11:31 am EST Sunday 25 August 2019 (issued every 10 minutes, with the page automatically refreshed every 10 minutes)

About coastal observations | Map of coastal stations | Coastal observations for NSW | Marine services | Other Formats
Station Details ID: 058198 Name: BALLINA AIRPORT AWS Lat: -28.84 Lon: 153.56 Height: 1.3 m
Data from the previous 72 hours. | See also: Recent months at Ballina
Date/Time
EST
Wind Sea
Height
m
Swell Vis
km
Cloud Weather Temp
°C
Press
hPa
Rain since
9am
mm
Dir  Spd
kts
Gust
kts
Height
m
Period
s
Dir
25/11:30am NNW 6 12 - - - - 10 Clear - 23.5 1018.4 0.0
25/11:00am NW 7 13 - - - - 10 - - 22.7 1018.9 0.0
25/10:30am WNW 7 11 - - - - 10 - - 22.4 1019.3 0.0
25/10:00am N 1 5 - - - - 10 - - 21.7 1019.7 0.0
25/09:30am NNE 1 3 - - - - 10 - - 20.4 1019.9 0.0
25/09:00am N 2 4 - - - - 10 - - 19.0 1020.0 0.0
25/08:30am N 3 5 - - - - 10 - - 17.0 1020.2 0.0
25/08:00am CALM 0 4 - - - - 10 - - 14.0 1020.2 0.0
25/07:30am CALM 0 0 - - - - 10 - - 11.0 1019.9 0.0
25/07:00am CALM 0 0 - - - - 10 - - 8.3 1019.6 0.0
25/06:30am CALM 0 0 - - - - 10 - - 6.2 1019.5 0.0
25/06:09am CALM 0 0 - - - - 10 - - 6.3 1019.4 0.0
25/06:00am CALM 0 0 - - - - 6 - - 5.8 1019.4 0.0
25/05:36am CALM 0 0 - - - - 5 - - 6.6 1019.3 0.0
25/05:30am CALM 0 0 - - - - 10 - - 6.8 1019.2 0.0
25/05:00am W 3 4 - - - - 10 - - 6.2 1019.1 0.0
25/04:30am W 4 5 - - - - 10 - - 7.1 1019.0 0.0
25/04:04am CALM 0 0 - - - - 10 - - 7.6 1018.9 0.0
25/04:00am CALM 0 0 - - - - 10 - - 7.5 1018.9 0.0
25/03:40am CALM 0 0 - - - - 5 - - 7.2 1018.9 0.0
25/03:30am CALM 0 0 - - - - 10 - - 7.6 1019.0 0.0
25/03:03am CALM 0 0 - - - - 10 - - 7.6 1019.1 0.0
25/03:00am CALM 0 0 - - - - 10 - - 7.7 1019.1 0.0
25/02:39am CALM 0 0 - - - - 4 - - 7.9 1019.1 0.0
25/02:30am CALM 0 0 - - - - 10 - - 8.5 1019.2 0.0
25/02:00am CALM 0 0 - - - - 10 - - 8.4 1019.2 0.0
25/01:30am CALM 0 0 - - - - 10 - - 10.2 1019.5 0.0
25/01:00am NW 2 3 - - - - 10 - - 10.2 1019.7 0.0
25/12:30am CALM 0 3 - - - - 10 - - 11.6 1019.9 0.0
25/12:00am NNW 4 6 - - - - 10 - - 13.7 1020.1 0.0
 
Date/Time
EST
Wind Sea
Height
m
Swell Vis
km
Cloud Weather Temp
°C
Press
hPa
Rain since
9am
mm
Dir  Spd
kts
Gust
kts
Height
m
Period
s
Dir
24/11:30pm N 8 10 - - - - 10 - - 14.6 1020.1 0.0
24/11:00pm N 8 11 - - - - 10 - - 15.2 1020.0 0.0
24/10:30pm N 9 13 - - - - 10 - - 15.3 1020.3 0.0
24/10:00pm N 10 15 - - - - 10 - - 15.5 1020.4 0.0
24/09:30pm N 9 13 - - - - 10 - - 15.8 1020.5 0.0
24/09:00pm N 10 13 - - - - 10 - - 16.0 1020.7 0.0
24/08:30pm N 10 14 - - - - 10 - - 16.2 1020.7 0.0
24/08:00pm N 9 15 - - - - 10 - - 16.4 1020.7 0.0
24/07:30pm N 9 14 - - - - 10 - - 16.4 1020.6 0.0
24/07:00pm NNE 10 13 - - - - 10 - - 16.7 1020.6 0.0
24/06:30pm NNE 10 14 - - - - 10 - - 16.9 1020.5 0.0
24/06:00pm NNE 10 14 - - - - 10 - - 16.8 1020.3 0.0
24/05:30pm NNE 9 14 - - - - 10 - - 17.0 1020.3 0.0
24/05:00pm NNE 11 17 - - - - 10 - - 18.0 1020.3 0.0
24/04:30pm NNE 13 19 - - - - 10 - - 18.5 1020.2 0.0
24/04:00pm NNE 13 20 - - - - 10 - - 19.1 1020.1 0.0
24/03:30pm NE 13 19 - - - - 10 - - 19.7 1020.1 0.0
24/03:00pm NE 15 19 - - - - 10 - - 19.7 1020.2 0.0
24/02:30pm NE 15 19 - - - - 10 - - 19.8 1020.4 0.0
24/02:00pm NE 15 20 - - - - 10 - - 19.7 1020.8 0.0
24/01:30pm NE 14 19 - - - - 10 - - 20.4 1021.2 0.0
24/01:00pm NE 15 19 - - - - 10 - - 20.1 1021.6 0.0
24/12:30pm NE 15 19 - - - - 10 - - 19.9 1022.1 0.0
24/12:00pm NE 14 19 - - - - 10 - - 19.8 1022.8 0.0
24/11:30am NE 13 18 - - - - 10 - - 20.4 1023.4 0.0
24/11:00am NE 11 14 - - - - 10 Partly cloudy - 20.0 1023.9 0.0
24/10:30am NNE 6 10 - - - - 10 Partly cloudy - 19.0 1024.3 0.0
24/10:00am N 4 7 - - - - 10 - - 19.3 1024.8 0.0
24/09:30am WSW 4 6 - - - - 10 - - 18.3 1025.1 0.0
24/09:00am WNW 4 6 - - - - 10 - - 17.3 1025.2 0.0
24/08:30am WNW 3 5 - - - - 10 - - 15.9 1025.4 0.0
24/08:00am CALM 0 0 - - - - 10 - - 13.4 1025.3 0.0
24/07:30am CALM 0 0 - - - - 10 - - 11.1 1025.3 0.0
24/07:00am W 1 3 - - - - 10 - - 8.3 1025.3 0.0
24/06:30am W 1 3 - - - - 10 - - 6.6 1025.2 0.0
24/06:00am CALM 0 0 - - - - 10 - - 6.6 1024.9 0.0
24/05:30am CALM 0 0 - - - - 10 - - 6.3 1024.9 0.0
24/05:00am CALM 0 0 - - - - 10 - - 6.5 1024.7 0.0
24/04:30am CALM 0 0 - - - - 10 - - 6.9 1024.7 0.0
24/04:00am CALM 0 0 - - - - 10 - - 6.8 1024.4 0.0
24/03:42am CALM 0 0 - - - - 10 - - 6.9 1024.4 0.0
24/03:30am CALM 0 0 - - - - 3 - - 6.7 1024.4 0.0
24/03:22am CALM 0 0 - - - - 4 - - 6.5 1024.4 0.0
24/03:00am CALM 0 0 - - - - 10 - - 6.8 1024.4 0.0
24/02:30am CALM 0 0 - - - - 9 - - 7.7 1024.5 0.0
24/02:00am CALM 0 0 - - - - 10 - - 7.4 1024.7 0.0
24/01:30am CALM 0 0 - - - - 10 - - 7.7 1024.8 0.0
24/01:00am CALM 0 0 - - - - 10 - - 7.9 1025.0 0.0
24/12:30am CALM 0 0 - - - - 10 Partly cloudy - 8.2 1025.1 0.0
24/12:19am CALM 0 0 - - - - 10 Partly cloudy - 7.7 1025.2 0.0
24/12:00am CALM 0 0 - - - - 2 Mostly clear - 7.2 1025.3 0.0
 
Date/Time
EST
Wind Sea
Height
m
Swell Vis
km
Cloud Weather Temp
°C
Press
hPa
Rain since
9am
mm
Dir  Spd
kts
Gust
kts
Height
m
Period
s
Dir
23/11:58pm CALM 0 0 - - - - 5 Partly cloudy - 7.1 1025.3 0.0
23/11:30pm CALM 0 0 - - - - 10 - - 8.1 1025.2 0.0
23/11:00pm CALM 0 2 - - - - 10 - - 8.6 1025.3 0.0
23/10:30pm W 1 3 - - - - 10 - - 9.2 1025.4 0.0
23/10:00pm W 2 3 - - - - 10 - - 9.7 1025.5 0.0
23/09:30pm W 3 4 - - - - 10 - - 10.2 1025.6 0.0
23/09:00pm W 4 5 - - - - 10 - - 10.2 1025.6 0.0
23/08:30pm WSW 4 5 - - - - 10 - - 11.0 1025.6 0.0
23/08:00pm S 5 7 - - - - 10 - - 15.5 1025.4 0.0
23/07:30pm SSE 7 10 - - - - 10 - - 15.5 1025.3 0.0
23/07:00pm SSE 7 12 - - - - 10 - - 16.0 1025.0 0.0
23/06:30pm SSE 9 11 - - - - 10 - - 16.3 1024.8 0.0
23/06:00pm SSE 9 13 - - - - 10 - - 16.2 1024.4 0.0
23/05:30pm SSE 9 14 - - - - 10 - - 16.8 1024.3 0.0
23/05:00pm S 11 16 - - - - 10 - - 17.2 1024.0 0.0
23/04:30pm SSE 12 17 - - - - 10 - - 17.9 1023.8 0.0
23/04:00pm S 14 19 - - - - 10 - - 18.2 1023.6 0.0
23/03:30pm S 13 19 - - - - 10 - - 18.4 1023.6 0.0
23/03:00pm S 13 18 - - - - 10 - - 18.8 1023.5 0.0
23/02:30pm S 15 21 - - - - 10 Partly cloudy - 18.8 1023.4 0.0
23/02:00pm S 14 20 - - - - 10 Partly cloudy - 19.1 1023.4 0.0
23/01:30pm S 14 20 - - - - 10 Partly cloudy - 18.9 1023.7 0.0
23/01:00pm S 15 21 - - - - 10 Partly cloudy - 19.2 1023.9 0.0
23/12:30pm SSW 14 24 - - - - 10 - - 18.4 1024.2 0.0
23/12:00pm SSW 14 20 - - - - 10 Mostly cloudy - 17.4 1024.7 0.0
23/11:30am SSW 15 22 - - - - 10 Partly cloudy - 17.4 1025.2 0.0
23/11:11am SSW 15 25 - - - - 10 Partly cloudy - 17.9 1025.3 0.0
23/11:00am SSW 16 23 - - - - 10 Partly cloudy - 17.8 1025.4 0.0
23/10:30am SSW 12 17 - - - - 10 Partly cloudy - 17.9 1025.3 0.0
23/10:00am SW 13 20 - - - - 10 Partly cloudy - 17.2 1025.4 0.0
23/09:30am SW 13 19 - - - - 10 Cloudy - 15.7 1025.2 0.0
23/09:00am WSW 10 13 - - - - 10 Cloudy - 14.9 1025.0 0.0
23/08:30am SW 10 17 - - - - 10 Cloudy - 14.4 1025.0 0.0
23/08:00am WSW 9 12 - - - - 10 Partly cloudy - 13.5 1024.3 0.0
23/07:30am WSW 9 14 - - - - 10 Cloudy - 13.5 1023.7 0.0
23/07:00am WSW 8 10 - - - - 10 Cloudy - 12.6 1023.1 0.0
23/06:30am WSW 8 11 - - - - 10 Partly cloudy - 11.8 1022.7 0.0
23/06:00am WSW 9 12 - - - - 10 Partly cloudy - 12.5 1022.1 0.0
23/05:30am WSW 7 9 - - - - 10 - - 11.2 1021.6 0.0
23/05:00am WSW 8 11 - - - - 10 Partly cloudy - 12.1 1021.2 0.0
23/04:30am WSW 8 11 - - - - 10 Partly cloudy - 12.8 1020.8 0.0
23/04:00am WSW 8 10 - - - - 10 Cloudy - 12.4 1020.5 0.0
23/03:30am WSW 7 9 - - - - 10 Partly cloudy - 12.0 1020.2 0.0
23/03:00am SW 9 12 - - - - 10 Cloudy - 13.1 1020.0 0.0
23/02:30am WSW 8 13 - - - - 10 Partly cloudy - 12.9 1020.0 0.0
23/02:00am WSW 8 10 - - - - 8 Partly cloudy - 13.0 1019.8 0.0
23/01:30am SW 9 14 - - - - 9 Cloudy - 14.7 1019.8 0.0
23/01:00am S 13 19 - - - - 10 Partly cloudy - 16.0 1019.8 0.0
23/12:30am S 14 21 - - - - 10 Partly cloudy - 15.7 1019.9 0.0
23/12:00am SSE 17 27 - - - - 10 Cloudy - 15.9 1019.7 0.0
 
Date/Time
EST
Wind Sea
Height
m
Swell Vis
km
Cloud Weather Temp
°C
Press
hPa
Rain since
9am
mm
Dir  Spd
kts
Gust
kts
Height
m
Period
s
Dir
22/11:49pm S 16 27 - - - - 10 Partly cloudy - 16.6 1019.7 0.0
22/11:30pm S 16 22 - - - - 10 Partly cloudy - 16.4 1019.7 0.0
22/11:00pm S 16 23 - - - - 10 Partly cloudy - 16.3 1019.7 0.0
22/10:41pm S 17 27 - - - - 10 Partly cloudy - 16.7 1019.6 0.0
22/10:30pm S 19 26 - - - - 10 Partly cloudy - 16.8 1019.5 0.0
22/10:00pm S 18 28 - - - - 10 Partly cloudy - 17.0 1019.2 0.0
22/09:50pm S 17 27 - - - - 10 Partly cloudy - 17.1 1019.2 0.0
22/09:30pm S 17 26 - - - - 10 Partly cloudy - 17.2 1019.1 0.0
22/09:01pm S 16 26 - - - - 10 Partly cloudy - 17.1 1018.7 0.0
22/09:00pm S 15 24 - - - - 10 Cloudy - 17.0 1018.7 0.0
22/08:55pm S 16 26 - - - - 10 Partly cloudy - 16.9 1018.6 0.0
22/08:30pm S 17 26 - - - - 10 Partly cloudy - 17.0 1018.3 0.0
22/08:05pm SSE 19 29 - - - - 10 Partly cloudy - 17.2 1017.8 0.0
22/08:00pm SSE 20 29 - - - - 10 Partly cloudy - 17.2 1017.7 0.0
22/07:32pm S 17 27 - - - - 10 Partly cloudy - 17.2 1017.1 0.0
22/07:30pm S 18 27 - - - - 10 Partly cloudy - 17.3 1017.1 0.0
22/07:03pm SSE 20 30 - - - - 10 Partly cloudy - 17.5 1016.3 0.0
22/07:00pm S 20 28 - - - - 10 Partly cloudy - 17.5 1016.3 0.0
22/06:37pm SSE 18 29 - - - - 10 Partly cloudy - 18.0 1015.5 0.0
22/06:30pm S 13 27 - - - - 10 Partly cloudy - 18.5 1015.2 0.0
22/06:00pm SSE 8 11 - - - - 10 - - 18.1 1014.3 0.0
22/05:30pm SSE 7 10 - - - - 10 - - 18.0 1012.8 0.0
22/05:00pm SE 8 10 - - - - 10 - - 19.8 1012.0 0.0
22/04:30pm ENE 8 10 - - - - 10 - - 20.5 1010.4 0.0
22/04:00pm ENE 7 11 - - - - 10 - - 21.6 1009.6 0.0
22/03:30pm E 9 12 - - - - 10 - - 22.2 1009.1 0.0
22/03:00pm ESE 7 10 - - - - 10 - - 23.0 1009.1 0.0
22/02:30pm WSW 11 17 - - - - 10 - - 25.2 1008.9 0.0
22/02:00pm W 13 20 - - - - 10 - - 24.7 1009.1 0.0
22/01:30pm W 13 18 - - - - 10 - - 24.3 1009.4 0.0
22/01:00pm W 14 21 - - - - 10 - - 24.0 1009.7 0.0
22/12:30pm W 16 20 - - - - 10 - - 22.7 1010.3 0.0
22/12:00pm WSW 16 20 - - - - 10 - - 22.2 1010.8 0.0

Other formats

Comma delimited format used in spreadsheet applications
http://www.bom.gov.au/fwo/IDN60701/IDN60701.94596.axf

JavaScript Object Notation format (JSON) in row-major order
http://www.bom.gov.au/fwo/IDN60701/IDN60701.94596.json

Data quality

Most of these data are generated automatically and are frequently updated. Quality checks on data are not normally performed. It is possible for incorrect values to appear. Refer to information at About Latest Weather Observations and please check the disclaimer before using these data.